Time;durP1;ratioP1;P1;durP2;ratioP2;P2;SDS_P1;SDS_P2;PMS_P1;PMS_P2;Temp;Humidity;BMP_temperature;BMP_pressure;BME280_temperature;BME280_humidity;BME280_pressure;Samples;Min_cycle;Max_cycle;Signal;HPM_P1;HPM_P2
2021/10/13 00:01:54;;;;;;;28.20;16.60;;;;;;;4.15;100.00;101478.06;7401637;19;20380;-55
2021/10/13 00:04:26;;;;;;;37.97;9.37;;;;;;;3.95;100.00;101488.34;7394749;19;20406;-55
2021/10/13 00:06:55;;;;;;;10.83;8.00;;;;;;;3.89;100.00;101484.53;7400874;19;20388;-55
2021/10/13 00:09:25;;;;;;;11.93;8.07;;;;;;;3.91;100.00;101482.97;7401083;19;20390;-56
2021/10/13 00:11:54;;;;;;;19.37;9.80;;;;;;;3.93;100.00;101480.56;7400718;19;20720;-52
2021/10/13 00:14:24;;;;;;;16.10;8.57;;;;;;;3.92;100.00;101483.88;7396806;19;20494;-55
2021/10/13 00:16:56;;;;;;;21.40;10.87;;;;;;;4.02;100.00;101490.63;7398079;19;20464;-54
2021/10/13 00:19:28;;;;;;;16.07;9.07;;;;;;;4.15;100.00;101493.38;7395323;19;20371;-55
2021/10/13 00:21:58;;;;;;;13.07;7.70;;;;;;;4.09;100.00;101497.13;7400703;19;20376;-57
2021/10/13 00:24:28;;;;;;;11.30;8.10;;;;;;;4.18;100.00;101498.75;7397025;19;20685;-53
2021/10/13 00:26:57;;;;;;;13.00;7.57;;;;;;;3.92;100.00;101492.44;7405130;19;20951;-56
2021/10/13 00:29:27;;;;;;;12.10;8.20;;;;;;;3.96;100.00;101487.56;7395028;19;20394;-54
2021/10/13 00:31:57;;;;;;;11.07;8.00;;;;;;;4.05;100.00;101484.09;7400658;19;20380;-53
2021/10/13 00:34:29;;;;;;;11.80;6.93;;;;;;;4.68;100.00;101488.91;7393100;19;20408;-56
2021/10/13 00:36:58;;;;;;;9.40;7.10;;;;;;;5.23;100.00;101483.69;7398286;19;20382;-56
2021/10/13 00:39:27;;;;;;;10.17;7.00;;;;;;;5.07;100.00;101479.06;7397009;19;20381;-55
2021/10/13 00:41:58;;;;;;;17.87;8.23;;;;;;;4.42;100.00;101473.31;7399607;19;20738;-56
2021/10/13 00:44:27;;;;;;;11.63;7.43;;;;;;;4.44;100.00;101476.91;7393234;19;20387;-55
2021/10/13 00:47:00;;;;;;;9.17;7.50;;;;;;;4.28;100.00;101479.03;7399341;19;20392;-55
2021/10/13 00:49:33;;;;;;;14.13;7.30;;;;;;;4.36;100.00;101477.09;7394597;19;20404;-56
2021/10/13 00:52:03;;;;;;;15.70;7.50;;;;;;;4.17;100.00;101480.75;7400140;19;20463;-56
2021/10/13 00:54:33;;;;;;;18.00;8.60;;;;;;;4.14;100.00;101481.38;7396447;19;20475;-56
2021/10/13 00:57:03;;;;;;;15.63;7.03;;;;;;;4.33;100.00;101482.84;7397537;19;20660;-56
2021/10/13 00:59:32;;;;;;;12.90;9.30;;;;;;;4.27;100.00;101482.34;7393492;19;20841;-54
2021/10/13 01:02:05;;;;;;;14.90;7.33;;;;;;;4.07;100.00;101483.31;7399601;19;20455;-56
2021/10/13 01:04:56;;;;;;;17.77;7.80;;;;;;;3.85;100.00;101482.47;7391503;19;20437;-53
2021/10/13 01:07:35;;;;;;;15.47;7.73;;;;;;;4.02;100.00;101480.41;7403649;19;20375;-52
2021/10/13 01:10:10;;;;;;;15.83;8.23;;;;;;;4.06;100.00;101482.44;7383375;19;20482;-54
2021/10/13 01:13:12;;;;;;;12.90;8.03;;;;;;;4.34;100.00;101489.72;7399948;19;20624;-53
2021/10/13 01:15:47;;;;;;;10.30;7.53;;;;;;;4.58;100.00;101479.66;7391446;19;21199;-53
2021/10/13 01:18:24;;;;;;;17.97;8.70;;;;;;;4.61;100.00;101484.09;7400293;19;20369;-56
2021/10/13 01:21:05;;;;;;;58.13;11.33;;;;;;;4.59;100.00;101486.53;7393968;19;20940;-53
2021/10/13 01:24:06;;;;;;;9.40;6.93;;;;;;;5.16;100.00;101486.53;7397973;19;20391;-56
2021/10/13 01:26:40;;;;;;;13.83;7.60;;;;;;;5.14;100.00;101473.66;7399516;19;20445;-55
2021/10/13 01:29:16;;;;;;;11.43;6.90;;;;;;;4.84;100.00;101473.09;7399921;19;20456;-56
2021/10/13 01:31:48;;;;;;;14.50;7.90;;;;;;;4.98;100.00;101469.91;7398985;19;20415;-54
2021/10/13 01:34:23;;;;;;;15.53;7.33;;;;;;;4.98;100.00;101472.47;7398675;19;20490;-56
2021/10/13 01:36:58;;;;;;;8.53;6.70;;;;;;;5.10;100.00;101474.19;7397098;19;20490;-56
2021/10/13 01:39:28;;;;;;;9.50;6.67;;;;;;;5.06;100.00;101472.16;7395951;19;20664;-54
2021/10/13 01:41:59;;;;;;;9.30;6.53;;;;;;;5.42;100.00;101472.25;7399019;19;20455;-52
2021/10/13 01:44:33;;;;;;;10.20;6.70;;;;;;;5.00;100.00;101476.06;7391072;19;20487;-53
2021/10/13 01:47:03;;;;;;;7.47;6.57;;;;;;;4.92;100.00;101477.13;7398540;19;20471;-53
2021/10/13 01:49:34;;;;;;;11.00;7.10;;;;;;;5.05;100.00;101475.50;7392813;19;20871;-53
2021/10/13 01:52:05;;;;;;;8.70;6.57;;;;;;;5.51;100.00;101484.06;7400897;19;20382;-55
2021/10/13 01:54:38;;;;;;;9.67;6.23;;;;;;;5.91;100.00;101486.06;7391482;19;20410;-52
2021/10/13 01:57:08;;;;;;;9.77;6.30;;;;;;;6.14;100.00;101484.31;7397159;19;20905;-55
2021/10/13 01:59:42;;;;;;;8.50;6.27;;;;;;;5.99;100.00;101476.38;7392633;19;20391;-52
2021/10/13 02:02:12;;;;;;;10.70;7.03;;;;;;;5.64;100.00;101482.41;7399167;19;20881;-55
2021/10/13 02:04:43;;;;;;;9.20;5.83;;;;;;;5.52;100.00;101490.06;7392260;19;20458;-55
2021/10/13 02:07:14;;;;;;;7.60;6.17;;;;;;;5.21;100.00;101490.34;7398380;19;20398;-55
2021/10/13 02:09:45;;;;;;;13.27;7.23;;;;;;;4.68;100.00;101500.03;7392088;19;20407;-51
2021/10/13 02:12:14;;;;;;;7.90;5.93;;;;;;;5.28;100.00;101500.25;7403353;19;20396;-56
2021/10/13 02:14:47;;;;;;;8.73;5.90;;;;;;;5.32;100.00;101499.72;7390772;19;20390;-55
2021/10/13 02:17:17;;;;;;;10.60;6.47;;;;;;;5.90;100.00;101502.22;7396690;19;20380;-55
2021/10/13 02:19:47;;;;;;;14.83;6.77;;;;;;;5.79;100.00;101504.00;7391293;19;20402;-54
2021/10/13 02:22:17;;;;;;;7.03;5.27;;;;;;;6.06;100.00;101509.38;7398467;19;20463;-52
2021/10/13 02:24:49;;;;;;;7.30;5.40;;;;;;;5.89;100.00;101500.44;7394074;19;20415;-52
2021/10/13 02:27:22;;;;;;;10.63;6.63;;;;;;;5.54;100.00;101504.75;7397811;19;20435;-55
2021/10/13 02:29:54;;;;;;;8.13;5.60;;;;;;;5.90;100.00;101506.47;7391554;19;20865;-55
2021/10/13 02:32:23;;;;;;;7.70;6.23;;;;;;;5.42;100.00;101506.41;7398237;19;20396;-56
2021/10/13 02:34:54;;;;;;;8.90;6.70;;;;;;;4.66;100.00;101514.34;7393149;19;20404;-56
2021/10/13 02:37:23;;;;;;;8.80;6.80;;;;;;;4.21;100.00;101510.88;7401084;19;20404;-53
2021/10/13 02:39:53;;;;;;;15.63;7.00;;;;;;;4.19;100.00;101513.31;7402065;19;20407;-56
2021/10/13 02:42:22;;;;;;;11.23;8.10;;;;;;;4.01;100.00;101515.25;7405561;19;20382;-55
2021/10/13 02:44:54;;;;;;;11.27;7.73;;;;;;;3.98;100.00;101516.66;7397263;19;20471;-55
2021/10/13 02:47:29;;;;;;;15.10;9.07;;;;;;;4.00;100.00;101521.13;7404832;19;20461;-55
2021/10/13 02:50:03;;;;;;;12.97;8.40;;;;;;;3.96;100.00;101525.88;7398101;19;20412;-56
2021/10/13 02:52:39;;;;;;;13.27;8.90;;;;;;;3.84;100.00;101521.56;7405356;19;20451;-56
2021/10/13 02:55:11;;;;;;;11.50;7.70;;;;;;;3.97;100.00;101520.00;7399775;19;20394;-56
2021/10/13 02:57:43;;;;;;;15.70;8.40;;;;;;;3.96;100.00;101525.88;7402206;19;20716;-55
2021/10/13 03:00:16;;;;;;;13.60;8.77;;;;;;;4.12;100.00;101522.91;7398925;19;20427;-56
2021/10/13 03:02:53;;;;;;;13.90;8.70;;;;;;;3.95;100.00;101527.53;7404989;19;20355;-52
2021/10/13 03:05:24;;;;;;;10.70;7.70;;;;;;;3.91;100.00;101534.03;7397927;19;20709;-55
2021/10/13 03:07:55;;;;;;;14.03;8.23;;;;;;;3.77;100.00;101527.84;7404354;19;20394;-54
2021/10/13 03:10:25;;;;;;;21.97;7.83;;;;;;;3.75;100.00;101531.91;7399265;19;20454;-54
2021/10/13 03:12:57;;;;;;;10.80;7.63;;;;;;;3.72;100.00;101535.88;7404288;19;20367;-54
2021/10/13 03:15:30;;;;;;;11.10;7.20;;;;;;;3.74;100.00;101536.91;7397235;19;20398;-54
2021/10/13 03:18:00;;;;;;;13.40;8.60;;;;;;;3.61;100.00;101528.25;7402522;19;20375;-54
2021/10/13 03:20:32;;;;;;;55.60;8.37;;;;;;;3.64;100.00;101527.59;7398029;19;20399;-54
2021/10/13 03:23:03;;;;;;;19.60;7.30;;;;;;;3.49;100.00;101532.34;7404534;19;20375;-54
2021/10/13 03:25:34;;;;;;;56.47;9.10;;;;;;;3.53;100.00;101531.81;7377388;19;20849;-56
2021/10/13 03:28:06;;;;;;;19.93;7.97;;;;;;;3.21;100.00;101541.13;7403229;19;20377;-55
2021/10/13 03:30:38;;;;;;;66.30;11.00;;;;;;;3.08;100.00;101554.47;7398285;19;20437;-56
2021/10/13 03:33:08;;;;;;;12.70;5.83;;;;;;;3.13;100.00;101546.34;7403401;19;20667;-56
2021/10/13 03:35:37;;;;;;;16.03;7.23;;;;;;;3.08;100.00;101548.50;7396393;19;20419;-55
2021/10/13 03:38:08;;;;;;;44.17;8.67;;;;;;;2.95;100.00;101556.75;7401434;19;20456;-57
2021/10/13 03:40:38;;;;;;;33.93;7.30;;;;;;;3.01;100.00;101556.38;7396865;19;20889;-56
2021/10/13 03:43:07;;;;;;;10.07;6.60;;;;;;;3.08;100.00;101557.03;7403047;19;20727;-56
2021/10/13 03:45:39;;;;;;;13.47;6.60;;;;;;;3.05;100.00;101561.88;7374482;19;20455;-54
2021/10/13 03:48:09;;;;;;;32.37;7.93;;;;;;;3.12;100.00;101564.97;7401804;19;20385;-54
2021/10/13 03:50:39;;;;;;;26.23;8.10;;;;;;;3.06;100.00;101575.50;7396287;19;20415;-55
2021/10/13 03:53:08;;;;;;;28.60;8.97;;;;;;;3.05;100.00;101564.44;7402700;19;20383;-57
2021/10/13 03:55:38;;;;;;;16.80;7.77;;;;;;;3.09;100.00;101569.00;7398664;19;20426;-55
2021/10/13 03:58:07;;;;;;;13.70;7.47;;;;;;;3.02;100.00;101569.25;7401088;19;20373;-54
2021/10/13 04:00:40;;;;;;;38.70;8.40;;;;;;;2.98;100.00;101572.34;7401554;19;20474;-56
2021/10/13 04:03:10;;;;;;;31.27;8.70;;;;;;;2.95;100.00;101574.59;7402358;19;20399;-55
2021/10/13 04:05:39;;;;;;;14.30;7.60;;;;;;;2.94;100.00;101580.47;7395443;19;20194;-54
2021/10/13 04:08:09;;;;;;;28.50;7.93;;;;;;;3.00;100.00;101581.00;7404680;19;20450;-55
2021/10/13 04:10:39;;;;;;;29.83;8.60;;;;;;;2.97;100.00;101586.72;7395915;19;20785;-55
2021/10/13 04:13:09;;;;;;;11.10;8.13;;;;;;;2.99;100.00;101581.75;7404344;19;20403;-55
2021/10/13 04:15:41;;;;;;;14.03;8.80;;;;;;;3.01;100.00;101581.88;7395277;19;20497;-54
2021/10/13 04:18:11;;;;;;;44.20;9.25;;;;;;;2.97;100.00;101583.25;7400731;19;20906;-51
2021/10/13 04:20:41;;;;;;;66.90;10.47;;;;;;;3.01;100.00;101582.78;7395985;19;20199;-56
2021/10/13 04:23:10;;;;;;;69.07;10.80;;;;;;;3.16;100.00;101587.38;7401619;19;20452;-57
2021/10/13 04:25:40;;;;;;;23.53;9.20;;;;;;;3.08;100.00;101579.97;7394545;19;20745;-57
2021/10/13 04:28:09;;;;;;;69.43;10.90;;;;;;;3.03;100.00;101583.78;7401661;19;20391;-56
2021/10/13 04:30:42;;;;;;;84.33;12.43;;;;;;;3.07;100.00;101577.28;7393817;19;20417;-56
2021/10/13 04:33:11;;;;;;;21.43;9.47;;;;;;;3.12;100.00;101580.25;7401493;19;20743;-56
2021/10/13 04:35:41;;;;;;;41.40;12.10;;;;;;;3.04;100.00;101572.84;7394617;19;20466;-59
2021/10/13 04:38:10;;;;;;;46.23;10.53;;;;;;;3.07;100.00;101582.41;7400114;19;20388;-54
2021/10/13 04:40:40;;;;;;;37.33;10.13;;;;;;;3.08;100.00;101574.88;7398112;19;20415;-56
2021/10/13 04:43:10;;;;;;;32.57;10.40;;;;;;;3.23;100.00;101569.31;7405431;19;20667;-52
2021/10/13 04:45:41;;;;;;;39.50;10.70;;;;;;;3.22;100.00;101572.59;7394674;19;20491;-52
2021/10/13 04:48:11;;;;;;;20.57;9.30;;;;;;;3.27;100.00;101571.34;7401122;19;20396;-55
2021/10/13 04:50:41;;;;;;;17.10;9.93;;;;;;;3.45;100.00;101573.66;7394662;19;20430;-54
2021/10/13 04:53:11;;;;;;;21.83;12.40;;;;;;;3.27;100.00;101568.78;7400720;19;20475;-53
2021/10/13 04:55:40;;;;;;;13.80;9.67;;;;;;;3.24;100.00;101577.06;7393965;19;20737;-55
2021/10/13 04:58:10;;;;;;;38.43;11.00;;;;;;;3.41;100.00;101569.97;7398863;19;20401;-56
2021/10/13 05:00:42;;;;;;;16.40;9.70;;;;;;;3.42;100.00;101570.84;7393282;19;20403;-54
2021/10/13 05:03:12;;;;;;;20.83;9.00;;;;;;;3.43;100.00;101565.00;7400493;19;20669;-54
2021/10/13 05:05:41;;;;;;;27.87;8.87;;;;;;;3.45;100.00;101563.44;7394985;19;20433;-56
2021/10/13 05:08:11;;;;;;;15.43;9.93;;;;;;;3.37;100.00;101563.72;7400347;19;20371;-55
2021/10/13 05:10:41;;;;;;;115.43;12.07;;;;;;;3.58;100.00;101557.72;7397335;19;20389;-54
2021/10/13 05:13:10;;;;;;;52.97;8.83;;;;;;;3.46;100.00;101567.78;7400005;19;20481;-55
2021/10/13 05:15:44;;;;;;;21.97;11.67;;;;;;;3.27;100.00;101561.13;7393276;19;20470;-56
2021/10/13 05:18:13;;;;;;;17.77;11.30;;;;;;;3.32;100.00;101559.88;7399499;19;20385;-53
2021/10/13 05:20:44;;;;;;;14.00;8.23;;;;;;;3.35;100.00;101555.00;7393937;19;20401;-54
2021/10/13 05:23:13;;;;;;;10.23;7.90;;;;;;;3.27;100.00;101563.69;7399919;19;20721;-56
2021/10/13 05:25:48;;;;;;;13.80;9.57;;;;;;;3.23;100.00;101565.09;7385068;19;20765;-55
2021/10/13 05:28:18;;;;;;;10.63;7.80;;;;;;;3.34;100.00;101565.97;7399874;19;20709;-56
2021/10/13 05:30:50;;;;;;;15.40;10.13;;;;;;;3.35;100.00;101565.22;7385696;19;20851;-56
2021/10/13 05:33:19;;;;;;;14.57;8.93;;;;;;;3.38;100.00;101575.69;7399527;19;20681;-55
2021/10/13 05:35:48;;;;;;;9.17;8.00;;;;;;;3.30;100.00;101574.16;7392017;19;20465;-53
2021/10/13 05:38:18;;;;;;;11.33;8.73;;;;;;;3.46;100.00;101572.88;7402356;19;20387;-55
2021/10/13 05:40:48;;;;;;;9.90;7.27;;;;;;;3.45;100.00;101571.09;7395962;19;20679;-54
2021/10/13 05:43:19;;;;;;;12.93;8.57;;;;;;;3.43;100.00;101572.66;7399191;19;20412;-52
2021/10/13 05:45:51;;;;;;;9.30;7.37;;;;;;;3.47;100.00;101579.78;7392524;19;20494;-57
2021/10/13 05:48:20;;;;;;;11.20;8.67;;;;;;;3.46;100.00;101583.09;7399218;19;20448;-57
2021/10/13 05:50:50;;;;;;;16.73;11.70;;;;;;;3.43;100.00;101585.41;7392740;19;20398;-55
2021/10/13 05:53:20;;;;;;;18.87;12.90;;;;;;;3.45;100.00;101577.13;7398833;19;20387;-56
2021/10/13 05:55:50;;;;;;;15.17;11.60;;;;;;;3.46;100.00;101583.09;7395324;19;20841;-56
2021/10/13 05:58:22;;;;;;;11.47;8.77;;;;;;;3.30;100.00;101586.94;7398361;19;20396;-56
2021/10/13 06:00:55;;;;;;;10.20;8.53;;;;;;;3.27;100.00;101584.09;7392552;19;20428;-55
2021/10/13 06:03:26;;;;;;;12.63;9.07;;;;;;;3.30;100.00;101592.03;7403046;19;20432;-56
2021/10/13 06:05:55;;;;;;;14.23;9.33;;;;;;;3.35;100.00;101590.72;7392294;19;20390;-55
2021/10/13 06:08:25;;;;;;;16.50;8.70;;;;;;;3.37;100.00;101595.97;7401079;19;20406;-56
2021/10/13 06:10:54;;;;;;;14.32;9.30;;;;;;;3.37;100.00;101604.53;7382431;19;20419;-54
2021/10/13 06:13:24;;;;;;;13.20;9.70;;;;;;;3.41;100.00;101604.78;7409717;19;20162;-56
2021/10/13 06:15:56;;;;;;;18.23;11.50;;;;;;;3.48;100.00;101612.19;7399024;19;20389;-55
2021/10/13 06:18:25;;;;;;;16.03;10.97;;;;;;;3.57;100.00;101617.16;7405355;19;20367;-56
2021/10/13 06:20:55;;;;;;;14.43;9.40;;;;;;;3.55;100.00;101614.50;7399872;19;20491;-55
2021/10/13 06:23:24;;;;;;;13.20;9.60;;;;;;;3.51;100.00;101618.47;7405219;19;20679;-55
2021/10/13 06:25:54;;;;;;;17.87;10.57;;;;;;;3.54;100.00;101622.03;7385008;19;20415;-55
2021/10/13 06:28:24;;;;;;;14.37;11.53;;;;;;;3.54;100.00;101628.00;7406045;19;20400;-55
2021/10/13 06:30:56;;;;;;;12.90;9.80;;;;;;;3.58;100.00;101635.16;7399553;19;20403;-56
2021/10/13 06:33:26;;;;;;;17.70;11.57;;;;;;;3.78;100.00;101634.28;7406832;19;20405;-52
2021/10/13 06:35:56;;;;;;;18.40;12.93;;;;;;;3.79;100.00;101635.16;7398966;19;20395;-56
2021/10/13 06:38:25;;;;;;;17.07;10.27;;;;;;;3.80;100.00;101631.88;7404794;19;20444;-55
2021/10/13 06:40:55;;;;;;;17.27;12.87;;;;;;;3.82;100.00;101644.75;7402406;19;20661;-56
2021/10/13 06:43:24;;;;;;;13.67;10.43;;;;;;;3.74;100.00;101644.13;7404599;19;20417;-56
2021/10/13 06:45:57;;;;;;;16.20;10.43;;;;;;;3.80;100.00;101646.28;7398403;19;20480;-51
2021/10/13 06:48:26;;;;;;;14.80;10.10;;;;;;;3.83;100.00;101637.22;7405254;19;20394;-56
2021/10/13 06:50:56;;;;;;;11.60;9.50;;;;;;;3.94;100.00;101652.56;7399033;19;20398;-55
2021/10/13 06:53:25;;;;;;;22.37;10.90;;;;;;;4.03;100.00;101651.66;7404368;19;20410;-56
2021/10/13 06:55:55;;;;;;;18.13;11.03;;;;;;;4.09;100.00;101651.25;7398204;19;20418;-56
2021/10/13 06:58:24;;;;;;;13.03;9.60;;;;;;;4.08;100.00;101658.78;7404447;19;20400;-56
2021/10/13 07:00:56;;;;;;;16.73;9.97;;;;;;;4.12;100.00;101660.81;7398785;19;20414;-55
2021/10/13 07:03:26;;;;;;;22.63;12.97;;;;;;;4.31;100.00;101673.47;7404474;19;20410;-57
2021/10/13 07:05:55;;;;;;;20.83;12.10;;;;;;;4.61;100.00;101674.16;7398666;19;20511;-55
2021/10/13 07:08:25;;;;;;;24.30;15.73;;;;;;;4.75;100.00;101671.81;7408556;19;20389;-55
2021/10/13 07:10:54;;;;;;;41.30;21.93;;;;;;;4.95;100.00;101675.97;7402148;19;20498;-55
2021/10/13 07:13:24;;;;;;;32.43;15.20;;;;;;;4.89;100.00;101675.47;7403520;19;20733;-54
2021/10/13 07:15:53;;;;;;;13.27;10.07;;;;;;;4.87;100.00;101683.00;7398352;19;20437;-55
2021/10/13 07:18:25;;;;;;;14.27;9.37;;;;;;;4.93;100.00;101675.81;7403906;19;20464;-53
2021/10/13 07:20:55;;;;;;;22.90;9.00;;;;;;;4.85;100.00;101669.22;7398466;19;20484;-53
2021/10/13 07:23:24;;;;;;;16.10;10.57;;;;;;;4.93;100.00;101668.16;7401818;19;20492;-54
2021/10/13 07:25:54;;;;;;;15.33;11.20;;;;;;;5.06;100.00;101671.69;7400050;19;20413;-55
2021/10/13 07:28:25;;;;;;;35.83;11.33;;;;;;;5.17;100.00;101667.44;7403404;19;20384;-56
2021/10/13 07:30:54;;;;;;;14.63;9.53;;;;;;;5.08;100.00;101673.59;7397667;19;20411;-55
2021/10/13 07:33:27;;;;;;;14.87;8.80;;;;;;;5.19;100.00;101669.34;7403335;19;20487;-53
2021/10/13 07:35:56;;;;;;;21.63;14.10;;;;;;;5.39;100.00;101670.00;7396981;19;20945;-54
2021/10/13 07:38:26;;;;;;;13.70;9.30;;;;;;;5.38;100.00;101673.31;7407972;19;20447;-55
2021/10/13 07:40:56;;;;;;;13.50;9.93;;;;;;;5.32;100.00;101673.72;7399639;19;20406;-57
2021/10/13 07:43:26;;;;;;;12.97;8.67;;;;;;;5.25;100.00;101671.47;7402591;19;20467;-57
2021/10/13 07:45:56;;;;;;;11.47;8.77;;;;;;;5.32;100.00;101680.53;7396491;19;20454;-55
2021/10/13 07:48:28;;;;;;;15.00;8.83;;;;;;;5.40;100.00;101677.78;7403380;19;20389;-56
2021/10/13 07:50:58;;;;;;;13.20;9.00;;;;;;;5.43;100.00;101676.25;7396631;19;20471;-57
2021/10/13 07:53:27;;;;;;;14.37;8.97;;;;;;;5.44;100.00;101683.13;7402152;19;20422;-57
2021/10/13 07:55:57;;;;;;;16.77;9.70;;;;;;;5.51;100.00;101683.75;7398915;19;20486;-56
2021/10/13 07:58:26;;;;;;;12.27;9.23;;;;;;;5.50;100.00;101686.19;7402499;19;20386;-56
2021/10/13 08:00:56;;;;;;;14.70;8.97;;;;;;;5.59;100.00;101683.44;7396101;19;20427;-54
2021/10/13 08:03:28;;;;;;;24.33;12.53;;;;;;;5.74;100.00;101696.53;7402893;19;20435;-57
2021/10/13 08:05:57;;;;;;;18.53;11.40;;;;;;;5.91;100.00;101692.69;7397852;19;20443;-56
2021/10/13 08:08:27;;;;;;;16.20;9.90;;;;;;;6.13;100.00;101691.75;7404357;19;20400;-57
2021/10/13 08:10:56;;;;;;;14.23;10.40;;;;;;;6.24;100.00;101693.44;7400921;19;20464;-52
2021/10/13 08:13:26;;;;;;;19.03;12.77;;;;;;;6.83;100.00;101686.56;7401859;19;20475;-55
2021/10/13 08:15:55;;;;;;;17.13;10.57;;;;;;;6.74;100.00;101679.09;7395819;19;20487;-55
2021/10/13 08:18:28;;;;;;;24.53;11.83;;;;;;;6.84;100.00;101684.13;7401809;19;20378;-56
2021/10/13 08:20:57;;;;;;;16.73;10.07;;;;;;;7.01;100.00;101685.31;7395662;19;21920;-56
2021/10/13 08:23:27;;;;;;;21.03;10.90;;;;;;;7.36;100.00;101693.72;7403832;19;20431;-56
2021/10/13 08:25:58;;;;;;;11.47;7.67;;;;;;;7.31;100.00;101689.94;7398179;19;20411;-57
2021/10/13 08:28:28;;;;;;;16.60;8.77;;;;;;;7.56;100.00;101691.66;7401525;19;20853;-53
2021/10/13 08:30:58;;;;;;;33.77;14.90;;;;;;;7.60;100.00;101690.19;7395387;19;20482;-54
2021/10/13 08:33:31;;;;;;;31.80;17.83;;;;;;;7.69;100.00;101691.69;7401554;19;20420;-54
2021/10/13 08:36:00;;;;;;;21.47;9.50;;;;;;;7.63;100.00;101692.97;7396214;19;21129;-54
2021/10/13 08:38:30;;;;;;;52.53;27.07;;;;;;;7.93;100.00;101695.81;7401010;19;20705;-56
2021/10/13 08:41:00;;;;;;;13.83;9.50;;;;;;;8.08;100.00;101701.09;7398895;19;20451;-54
2021/10/13 08:43:29;;;;;;;54.47;20.73;;;;;;;8.13;100.00;101702.31;7400601;19;20495;-55
2021/10/13 08:45:59;;;;;;;26.90;11.93;;;;;;;8.22;100.00;101691.75;7394001;19;20503;-54
2021/10/13 08:48:31;;;;;;;17.83;5.60;;;;;;;8.38;100.00;101691.09;7400980;19;20409;-52
2021/10/13 08:51:00;;;;;;;9.40;6.23;;;;;;;8.34;100.00;101689.09;7395073;19;20693;-55
2021/10/13 08:53:30;;;;;;;15.47;8.40;;;;;;;8.33;100.00;101693.38;7400436;19;20423;-52
2021/10/13 08:56:00;;;;;;;17.37;9.47;;;;;;;8.27;100.00;101692.97;7397100;19;20490;-54
2021/10/13 08:58:31;;;;;;;7.47;4.80;;;;;;;8.30;100.00;101692.28;7400739;19;20402;-56
2021/10/13 09:01:11;;;;;;;11.00;4.60;;;;;;;8.35;100.00;101696.00;7392474;19;20716;-54
2021/10/13 09:03:45;;;;;;;9.57;4.80;;;;;;;8.23;100.00;101696.09;7400057;19;20423;-55
2021/10/13 09:06:20;;;;;;;61.10;28.43;;;;;;;8.51;100.00;101701.41;7393734;19;20488;-56
2021/10/13 09:08:57;;;;;;;10.00;4.00;;;;;;;8.39;100.00;101698.00;7402353;19;20714;-54
2021/10/13 09:11:36;;;;;;;7.00;4.60;;;;;;;8.43;100.00;101699.09;7375662;19;20964;-55
2021/10/13 09:14:07;;;;;;;39.17;20.60;;;;;;;8.71;100.00;101696.66;7399137;19;20748;-57
2021/10/13 09:16:51;;;;;;;6.10;4.80;;;;;;;8.77;100.00;101696.19;7393576;19;20750;-55
2021/10/13 09:19:24;;;;;;;7.47;4.13;;;;;;;8.59;100.00;101698.44;7396864;19;20403;-56
2021/10/13 09:21:55;;;;;;;6.80;4.10;;;;;;;8.61;100.00;101690.03;7398061;19;20459;-55
2021/10/13 09:24:27;;;;;;;9.80;4.23;;;;;;;8.42;100.00;101693.09;7395938;19;20426;-57
2021/10/13 09:26:58;;;;;;;8.60;4.70;;;;;;;8.70;100.00;101688.84;7399049;19;20463;-55
2021/10/13 09:29:28;;;;;;;6.23;3.63;;;;;;;8.71;100.00;101690.66;7396155;19;20394;-57
2021/10/13 09:31:59;;;;;;;9.00;4.07;;;;;;;8.69;100.00;101687.97;7399346;19;20395;-53
2021/10/13 09:34:31;;;;;;;18.90;9.30;;;;;;;9.01;100.00;101681.41;7391754;19;20487;-55
2021/10/13 09:37:03;;;;;;;5.30;3.67;;;;;;;8.95;100.00;101683.59;7398740;19;20473;-56
2021/10/13 09:39:33;;;;;;;11.00;7.20;;;;;;;9.00;100.00;101684.78;7392650;19;20388;-58
2021/10/13 09:42:07;;;;;;;8.13;3.83;;;;;;;8.88;100.00;101684.00;7397981;19;20491;-56
2021/10/13 09:44:39;;;;;;;16.30;9.50;;;;;;;9.26;100.00;101689.75;7389958;19;20423;-55
2021/10/13 09:47:10;;;;;;;7.77;4.10;;;;;;;9.52;100.00;101690.47;7398675;19;20463;-52
2021/10/13 09:49:44;;;;;;;11.77;4.57;;;;;;;9.24;100.00;101684.53;7392390;19;20486;-55
2021/10/13 09:52:16;;;;;;;11.83;7.23;;;;;;;9.41;100.00;101683.00;7398840;19;20396;-56
2021/10/13 09:54:49;;;;;;;8.40;4.30;;;;;;;9.61;100.00;101685.00;7391379;19;20401;-56
2021/10/13 09:57:21;;;;;;;17.13;6.50;;;;;;;9.43;100.00;101677.91;7398376;19;20427;-56
2021/10/13 10:00:02;;;;;;;5.53;4.10;;;;;;;9.67;100.00;101686.25;7392490;19;20483;-56
2021/10/13 10:02:33;;;;;;;5.70;4.00;;;;;;;9.51;100.00;101679.28;7398519;19;20455;-54
2021/10/13 10:05:09;;;;;;;8.67;4.30;;;;;;;9.40;100.00;101690.63;7391013;19;20872;-54
2021/10/13 10:07:44;;;;;;;7.43;4.53;;;;;;;9.72;100.00;101694.25;7399460;19;20399;-57
2021/10/13 10:10:16;;;;;;;8.07;4.13;;;;;;;9.89;100.00;101691.81;7391501;19;20425;-56
2021/10/13 10:13:04;;;;;;;31.47;14.90;;;;;;;9.91;100.00;101688.53;7400660;19;20404;-56
2021/10/13 10:15:36;;;;;;;6.30;4.10;;;;;;;9.61;100.00;101690.16;7393307;19;20716;-55
2021/10/13 10:18:26;;;;;;;12.97;5.03;;;;;;;9.69;100.00;101684.66;7398250;19;20885;-55
2021/10/13 10:20:59;;;;;;;16.47;9.27;;;;;;;9.81;100.00;101694.84;7378251;19;20451;-57
2021/10/13 10:23:33;;;;;;;25.00;14.30;;;;;;;10.10;100.00;101705.09;7394778;19;20415;-54
2021/10/13 10:26:24;;;;;;;14.33;6.03;;;;;;;10.19;100.00;101704.72;7386716;19;20906;-55
2021/10/13 10:29:00;;;;;;;25.30;8.53;;;;;;;10.19;100.00;101703.03;7395081;19;20406;-55
2021/10/13 10:31:42;;;;;;;9.53;5.33;;;;;;;10.26;100.00;101709.47;7388469;19;20431;-56
2021/10/13 10:34:19;;;;;;;12.00;5.50;;;;;;;10.18;100.00;101706.44;7394160;19;20723;-56
2021/10/13 10:37:11;;;;;;;21.60;7.70;;;;;;;10.12;100.00;101706.94;7394292;19;20486;-57
2021/10/13 10:40:04;;;;;;;8.70;4.10;;;;;;;9.99;100.00;101704.44;7388471;19;20503;-56
2021/10/13 10:42:50;;;;;;;8.20;4.50;;;;;;;10.17;100.00;101711.50;7393318;19;20741;-55
2021/10/13 10:45:23;;;;;;;12.07;5.30;;;;;;;10.37;100.00;101710.94;7388824;19;20704;-57
2021/10/13 10:48:09;;;;;;;11.50;5.17;;;;;;;10.36;100.00;101716.03;7395842;19;20411;-55
2021/10/13 10:50:58;;;;;;;10.60;5.90;;;;;;;10.38;100.00;101709.28;7388538;19;20422;-57
2021/10/13 10:53:33;;;;;;;13.30;5.10;;;;;;;10.69;100.00;101707.56;7394653;19;20876;-57
2021/10/13 10:56:18;;;;;;;7.97;4.00;;;;;;;10.55;100.00;101702.53;7388848;19;20426;-58
2021/10/13 10:59:09;;;;;;;6.33;4.10;;;;;;;10.19;100.00;101691.81;7403005;19;20938;-57
2021/10/13 11:01:42;;;;;;;6.23;4.30;;;;;;;10.40;100.00;101699.91;7395811;19;20439;-56
2021/10/13 11:04:13;;;;;;;12.03;5.30;;;;;;;10.60;100.00;101705.34;7401150;19;20751;-53
2021/10/13 11:06:58;;;;;;;5.70;3.83;;;;;;;10.47;100.00;101696.91;7397298;19;20447;-56
2021/10/13 11:09:27;;;;;;;7.07;3.73;;;;;;;10.75;100.00;101700.19;7399791;19;20383;-57
2021/10/13 11:11:57;;;;;;;13.37;4.47;;;;;;;10.53;100.00;101693.81;7405295;19;20467;-56
2021/10/13 11:14:27;;;;;;;7.73;3.80;;;;;;;10.50;100.00;101693.63;7396915;19;20423;-55
2021/10/13 11:17:02;;;;;;;8.13;3.50;;;;;;;10.77;100.00;101690.84;7405188;19;20404;-57
2021/10/13 11:19:33;;;;;;;15.10;3.07;;;;;;;10.83;100.00;101683.44;7398086;19;20394;-55
2021/10/13 11:22:10;;;;;;;7.77;4.10;;;;;;;10.65;100.00;101685.88;7402241;19;20387;-58
2021/10/13 11:24:41;;;;;;;7.00;3.03;;;;;;;10.90;100.00;101684.66;7399807;19;20419;-57
2021/10/13 11:27:10;;;;;;;8.57;3.30;;;;;;;10.95;100.00;101688.38;7403219;19;20387;-56
2021/10/13 11:29:42;;;;;;;7.80;2.50;;;;;;;11.11;100.00;101687.53;7396876;19;20391;-55
2021/10/13 11:32:16;;;;;;;21.53;9.73;;;;;;;11.40;100.00;101680.47;7404022;19;20424;-56
2021/10/13 11:34:47;;;;;;;15.73;5.30;;;;;;;11.56;100.00;101683.84;7394933;19;20871;-53
2021/10/13 11:37:25;;;;;;;30.83;16.43;;;;;;;11.85;100.00;101677.59;7402904;19;20649;-56
2021/10/13 11:39:55;;;;;;;11.00;2.90;;;;;;;11.50;100.00;101680.94;7396937;19;20432;-53